sensor_id;sensor_type;location;lat;lon;timestamp;temperature;humidity
51567;DHT22;37657;53.182;5.638;2022-08-01T00:01:38;18.60;99.90
51567;DHT22;37657;53.182;5.638;2022-08-01T00:04:03;18.50;99.90
51567;DHT22;37657;53.182;5.638;2022-08-01T00:06:29;18.60;99.90
51567;DHT22;37657;53.182;5.638;2022-08-01T00:08:55;17.90;99.90
51567;DHT22;37657;53.182;5.638;2022-08-01T00:11:20;18.30;99.90
51567;DHT22;37657;53.182;5.638;2022-08-01T00:13:46;18.20;99.90
51567;DHT22;37657;53.182;5.638;2022-08-01T00:16:12;17.80;99.90
51567;DHT22;37657;53.182;5.638;2022-08-01T00:18:37;18.20;99.90
51567;DHT22;37657;53.182;5.638;2022-08-01T00:21:03;18.50;99.90
51567;DHT22;37657;53.182;5.638;2022-08-01T00:23:30;17.90;99.90
51567;DHT22;37657;53.182;5.638;2022-08-01T00:25:55;18.30;99.90
51567;DHT22;37657;53.182;5.638;2022-08-01T00:28:21;18.40;99.90
51567;DHT22;37657;53.182;5.638;2022-08-01T00:30:46;18.40;99.90
51567;DHT22;37657;53.182;5.638;2022-08-01T00:33:12;17.80;99.90
51567;DHT22;37657;53.182;5.638;2022-08-01T00:35:37;18.30;99.90
51567;DHT22;37657;53.182;5.638;2022-08-01T00:38:03;17.70;99.90
51567;DHT22;37657;53.182;5.638;2022-08-01T00:40:28;18.00;99.90
51567;DHT22;37657;53.182;5.638;2022-08-01T00:42:54;18.10;99.90
51567;DHT22;37657;53.182;5.638;2022-08-01T00:45:20;17.60;99.90
51567;DHT22;37657;53.182;5.638;2022-08-01T00:47:45;18.00;99.90
51567;DHT22;37657;53.182;5.638;2022-08-01T00:50:11;17.60;99.90
51567;DHT22;37657;53.182;5.638;2022-08-01T00:52:37;17.60;99.90
51567;DHT22;37657;53.182;5.638;2022-08-01T00:55:04;17.60;99.90
51567;DHT22;37657;53.182;5.638;2022-08-01T00:57:30;18.20;99.90
51567;DHT22;37657;53.182;5.638;2022-08-01T00:59:56;17.50;99.90
51567;DHT22;37657;53.182;5.638;2022-08-01T01:02:21;18.00;99.90
51567;DHT22;37657;53.182;5.638;2022-08-01T01:04:47;17.60;99.90
51567;DHT22;37657;53.182;5.638;2022-08-01T01:07:32;17.80;99.90
51567;DHT22;37657;53.182;5.638;2022-08-01T01:10:29;18.10;99.90
51567;DHT22;37657;53.182;5.638;2022-08-01T01:15:41;17.90;99.90
51567;DHT22;37657;53.182;5.638;2022-08-01T01:18:15;17.90;99.90
51567;DHT22;37657;53.182;5.638;2022-08-01T01:20:51;18.00;99.90
51567;DHT22;37657;53.182;5.638;2022-08-01T01:29:13;17.80;99.90
51567;DHT22;37657;53.182;5.638;2022-08-01T01:34:33;18.00;99.90
51567;DHT22;37657;53.182;5.638;2022-08-01T01:37:01;17.60;99.90
51567;DHT22;37657;53.182;5.638;2022-08-01T01:39:28;17.60;99.90
51567;DHT22;37657;53.182;5.638;2022-08-01T01:41:56;18.00;99.90
51567;DHT22;37657;53.182;5.638;2022-08-01T01:44:23;17.90;99.90
51567;DHT22;37657;53.182;5.638;2022-08-01T01:46:51;17.40;99.90
51567;DHT22;37657;53.182;5.638;2022-08-01T01:49:21;17.50;99.90
51567;DHT22;37657;53.182;5.638;2022-08-01T01:51:48;17.60;99.90
51567;DHT22;37657;53.182;5.638;2022-08-01T01:54:16;17.40;99.90
51567;DHT22;37657;53.182;5.638;2022-08-01T01:56:42;17.70;99.90
51567;DHT22;37657;53.182;5.638;2022-08-01T01:59:19;17.40;99.90
51567;DHT22;37657;53.182;5.638;2022-08-01T02:01:48;17.50;99.90
51567;DHT22;37657;53.182;5.638;2022-08-01T02:04:16;17.40;99.90
51567;DHT22;37657;53.182;5.638;2022-08-01T02:06:44;17.80;99.90
51567;DHT22;37657;53.182;5.638;2022-08-01T02:09:16;17.50;99.90
51567;DHT22;37657;53.182;5.638;2022-08-01T02:11:44;17.50;99.90
51567;DHT22;37657;53.182;5.638;2022-08-01T02:14:11;17.40;99.90
51567;DHT22;37657;53.182;5.638;2022-08-01T02:16:40;17.40;99.90
51567;DHT22;37657;53.182;5.638;2022-08-01T02:19:06;17.30;99.90
51567;DHT22;37657;53.182;5.638;2022-08-01T02:21:38;17.40;99.90
51567;DHT22;37657;53.182;5.638;2022-08-01T02:24:13;17.30;99.90
51567;DHT22;37657;53.182;5.638;2022-08-01T02:26:46;17.70;99.90
51567;DHT22;37657;53.182;5.638;2022-08-01T02:29:17;17.60;99.90
51567;DHT22;37657;53.182;5.638;2022-08-01T02:31:45;17.70;99.90
51567;DHT22;37657;53.182;5.638;2022-08-01T02:34:17;17.60;99.90
51567;DHT22;37657;53.182;5.638;2022-08-01T02:36:44;17.30;99.90
51567;DHT22;37657;53.182;5.638;2022-08-01T02:39:13;17.60;99.90
51567;DHT22;37657;53.182;5.638;2022-08-01T02:41:45;17.60;99.90
51567;DHT22;37657;53.182;5.638;2022-08-01T02:44:23;17.30;99.90
51567;DHT22;37657;53.182;5.638;2022-08-01T02:46:59;17.40;99.90
51567;DHT22;37657;53.182;5.638;2022-08-01T02:49:33;17.50;99.90
51567;DHT22;37657;53.182;5.638;2022-08-01T02:52:01;17.20;99.90
51567;DHT22;37657;53.182;5.638;2022-08-01T02:54:29;17.40;99.90
51567;DHT22;37657;53.182;5.638;2022-08-01T02:56:56;17.20;99.90
51567;DHT22;37657;53.182;5.638;2022-08-01T02:59:24;17.20;99.90
51567;DHT22;37657;53.182;5.638;2022-08-01T03:01:53;17.40;99.90
51567;DHT22;37657;53.182;5.638;2022-08-01T03:04:22;17.00;99.90
51567;DHT22;37657;53.182;5.638;2022-08-01T03:06:49;17.00;99.90
51567;DHT22;37657;53.182;5.638;2022-08-01T03:09:16;17.00;99.90
51567;DHT22;37657;53.182;5.638;2022-08-01T03:11:43;17.30;99.90
51567;DHT22;37657;53.182;5.638;2022-08-01T03:14:10;17.30;99.90
51567;DHT22;37657;53.182;5.638;2022-08-01T03:16:38;17.00;99.90
51567;DHT22;37657;53.182;5.638;2022-08-01T03:19:05;17.00;99.90
51567;DHT22;37657;53.182;5.638;2022-08-01T03:21:33;16.90;99.90
51567;DHT22;37657;53.182;5.638;2022-08-01T03:24:00;17.10;99.90
51567;DHT22;37657;53.182;5.638;2022-08-01T03:26:28;16.90;99.90
51567;DHT22;37657;53.182;5.638;2022-08-01T03:28:57;17.00;99.90
51567;DHT22;37657;53.182;5.638;2022-08-01T03:31:23;17.00;99.90
51567;DHT22;37657;53.182;5.638;2022-08-01T03:33:50;16.90;99.90
51567;DHT22;37657;53.182;5.638;2022-08-01T03:36:17;16.90;99.90
51567;DHT22;37657;53.182;5.638;2022-08-01T03:38:47;16.80;99.90
51567;DHT22;37657;53.182;5.638;2022-08-01T03:41:17;16.80;99.90
51567;DHT22;37657;53.182;5.638;2022-08-01T03:43:49;16.70;99.90
51567;DHT22;37657;53.182;5.638;2022-08-01T03:46:20;16.90;99.90
51567;DHT22;37657;53.182;5.638;2022-08-01T03:48:48;16.70;99.90
51567;DHT22;37657;53.182;5.638;2022-08-01T03:51:18;16.70;99.90
51567;DHT22;37657;53.182;5.638;2022-08-01T03:53:45;16.60;99.90
51567;DHT22;37657;53.182;5.638;2022-08-01T03:56:13;16.80;99.90
51567;DHT22;37657;53.182;5.638;2022-08-01T03:58:42;16.80;99.90
51567;DHT22;37657;53.182;5.638;2022-08-01T04:01:08;16.70;99.90
51567;DHT22;37657;53.182;5.638;2022-08-01T04:03:34;16.60;99.90
51567;DHT22;37657;53.182;5.638;2022-08-01T04:06:04;16.60;99.90
51567;DHT22;37657;53.182;5.638;2022-08-01T04:08:37;16.60;99.90
51567;DHT22;37657;53.182;5.638;2022-08-01T04:11:03;16.60;99.90
51567;DHT22;37657;53.182;5.638;2022-08-01T04:13:30;16.70;99.90
51567;DHT22;37657;53.182;5.638;2022-08-01T04:15:56;16.70;99.90
51567;DHT22;37657;53.182;5.638;2022-08-01T04:18:22;16.50;99.90
51567;DHT22;37657;53.182;5.638;2022-08-01T04:20:47;16.50;99.90
51567;DHT22;37657;53.182;5.638;2022-08-01T04:23:16;16.50;99.90
51567;DHT22;37657;53.182;5.638;2022-08-01T04:25:43;16.60;99.90
51567;DHT22;37657;53.182;5.638;2022-08-01T04:28:12;16.60;99.90
51567;DHT22;37657;53.182;5.638;2022-08-01T04:30:43;16.60;99.90
51567;DHT22;37657;53.182;5.638;2022-08-01T04:33:12;16.60;99.90
51567;DHT22;37657;53.182;5.638;2022-08-01T04:35:39;16.50;99.90
51567;DHT22;37657;53.182;5.638;2022-08-01T04:38:08;16.60;99.90
51567;DHT22;37657;53.182;5.638;2022-08-01T04:40:35;16.60;99.90
51567;DHT22;37657;53.182;5.638;2022-08-01T04:43:02;16.60;99.90
51567;DHT22;37657;53.182;5.638;2022-08-01T04:45:28;16.50;99.90
51567;DHT22;37657;53.182;5.638;2022-08-01T04:47:54;16.60;99.90
51567;DHT22;37657;53.182;5.638;2022-08-01T04:50:21;16.60;99.90
51567;DHT22;37657;53.182;5.638;2022-08-01T04:52:47;16.50;99.90
51567;DHT22;37657;53.182;5.638;2022-08-01T04:55:13;16.60;99.90
51567;DHT22;37657;53.182;5.638;2022-08-01T04:57:43;16.60;99.90
51567;DHT22;37657;53.182;5.638;2022-08-01T05:00:10;16.50;99.90
51567;DHT22;37657;53.182;5.638;2022-08-01T05:02:36;16.50;99.90
51567;DHT22;37657;53.182;5.638;2022-08-01T05:05:02;16.50;99.90
51567;DHT22;37657;53.182;5.638;2022-08-01T05:07:27;16.70;99.90
51567;DHT22;37657;53.182;5.638;2022-08-01T05:09:53;16.60;99.90
51567;DHT22;37657;53.182;5.638;2022-08-01T05:12:18;16.60;99.90
51567;DHT22;37657;53.182;5.638;2022-08-01T05:14:44;16.70;99.90
51567;DHT22;37657;53.182;5.638;2022-08-01T05:17:11;16.60;99.90
51567;DHT22;37657;53.182;5.638;2022-08-01T05:19:38;16.60;99.90
51567;DHT22;37657;53.182;5.638;2022-08-01T05:22:06;16.60;99.90
51567;DHT22;37657;53.182;5.638;2022-08-01T05:24:33;16.70;99.90
51567;DHT22;37657;53.182;5.638;2022-08-01T05:26:59;16.60;99.90
51567;DHT22;37657;53.182;5.638;2022-08-01T05:29:25;16.60;99.90
51567;DHT22;37657;53.182;5.638;2022-08-01T05:31:51;16.70;99.90
51567;DHT22;37657;53.182;5.638;2022-08-01T05:34:17;16.60;99.90
51567;DHT22;37657;53.182;5.638;2022-08-01T05:36:43;16.60;99.90
51567;DHT22;37657;53.182;5.638;2022-08-01T05:39:09;16.70;99.90
51567;DHT22;37657;53.182;5.638;2022-08-01T05:41:35;16.70;99.90
51567;DHT22;37657;53.182;5.638;2022-08-01T05:44:02;16.80;99.90
51567;DHT22;37657;53.182;5.638;2022-08-01T05:46:28;16.70;99.90
51567;DHT22;37657;53.182;5.638;2022-08-01T05:48:56;16.80;99.90
51567;DHT22;37657;53.182;5.638;2022-08-01T05:51:22;16.80;99.90
51567;DHT22;37657;53.182;5.638;2022-08-01T05:53:47;16.70;99.90
51567;DHT22;37657;53.182;5.638;2022-08-01T05:56:13;16.80;99.90
51567;DHT22;37657;53.182;5.638;2022-08-01T05:58:38;16.70;99.90
51567;DHT22;37657;53.182;5.638;2022-08-01T06:01:04;16.80;99.90
51567;DHT22;37657;53.182;5.638;2022-08-01T06:03:30;16.80;99.90
51567;DHT22;37657;53.182;5.638;2022-08-01T06:05:57;16.80;99.90
51567;DHT22;37657;53.182;5.638;2022-08-01T06:08:22;16.70;99.90
51567;DHT22;37657;53.182;5.638;2022-08-01T06:10:48;16.80;99.90
51567;DHT22;37657;53.182;5.638;2022-08-01T06:13:14;16.90;99.90
51567;DHT22;37657;53.182;5.638;2022-08-01T06:15:39;16.80;99.90
51567;DHT22;37657;53.182;5.638;2022-08-01T06:18:05;16.80;99.90
51567;DHT22;37657;53.182;5.638;2022-08-01T06:20:31;16.70;99.90
51567;DHT22;37657;53.182;5.638;2022-08-01T06:22:56;16.80;99.90
51567;DHT22;37657;53.182;5.638;2022-08-01T06:25:22;16.90;99.90
51567;DHT22;37657;53.182;5.638;2022-08-01T06:27:48;16.90;99.90
51567;DHT22;37657;53.182;5.638;2022-08-01T06:30:15;17.00;99.90
51567;DHT22;37657;53.182;5.638;2022-08-01T06:32:40;17.00;99.90
51567;DHT22;37657;53.182;5.638;2022-08-01T06:35:06;17.00;99.90
51567;DHT22;37657;53.182;5.638;2022-08-01T06:37:32;17.10;99.90
51567;DHT22;37657;53.182;5.638;2022-08-01T06:40:03;17.10;99.90
51567;DHT22;37657;53.182;5.638;2022-08-01T06:42:29;17.10;99.90
51567;DHT22;37657;53.182;5.638;2022-08-01T06:44:57;17.10;99.90
51567;DHT22;37657;53.182;5.638;2022-08-01T06:47:22;17.10;99.90
51567;DHT22;37657;53.182;5.638;2022-08-01T06:49:48;17.20;99.90
51567;DHT22;37657;53.182;5.638;2022-08-01T06:52:14;17.30;99.90
51567;DHT22;37657;53.182;5.638;2022-08-01T06:54:39;17.20;99.90
51567;DHT22;37657;53.182;5.638;2022-08-01T06:57:05;17.20;99.90
51567;DHT22;37657;53.182;5.638;2022-08-01T06:59:31;17.20;99.90
51567;DHT22;37657;53.182;5.638;2022-08-01T07:01:57;17.20;99.90
51567;DHT22;37657;53.182;5.638;2022-08-01T07:04:23;17.20;99.90
51567;DHT22;37657;53.182;5.638;2022-08-01T07:06:48;17.30;99.90
51567;DHT22;37657;53.182;5.638;2022-08-01T07:09:14;17.30;99.90
51567;DHT22;37657;53.182;5.638;2022-08-01T07:11:40;17.30;99.90
51567;DHT22;37657;53.182;5.638;2022-08-01T07:14:05;17.30;99.90
51567;DHT22;37657;53.182;5.638;2022-08-01T07:16:31;17.30;99.90
51567;DHT22;37657;53.182;5.638;2022-08-01T07:18:57;17.30;99.90
51567;DHT22;37657;53.182;5.638;2022-08-01T07:21:22;17.30;99.90
51567;DHT22;37657;53.182;5.638;2022-08-01T07:23:48;17.20;99.90
51567;DHT22;37657;53.182;5.638;2022-08-01T07:26:13;17.10;99.90
51567;DHT22;37657;53.182;5.638;2022-08-01T07:28:39;17.30;99.90
51567;DHT22;37657;53.182;5.638;2022-08-01T07:31:04;17.30;99.90
51567;DHT22;37657;53.182;5.638;2022-08-01T07:33:30;17.30;99.90
51567;DHT22;37657;53.182;5.638;2022-08-01T07:35:56;17.40;99.90
51567;DHT22;37657;53.182;5.638;2022-08-01T07:38:21;17.50;99.90
51567;DHT22;37657;53.182;5.638;2022-08-01T07:40:47;17.50;99.90
51567;DHT22;37657;53.182;5.638;2022-08-01T07:43:13;17.50;99.90
51567;DHT22;37657;53.182;5.638;2022-08-01T07:45:40;17.50;99.90
51567;DHT22;37657;53.182;5.638;2022-08-01T07:48:07;17.70;99.90
51567;DHT22;37657;53.182;5.638;2022-08-01T07:50:33;17.70;99.90
51567;DHT22;37657;53.182;5.638;2022-08-01T07:52:59;17.60;99.90
51567;DHT22;37657;53.182;5.638;2022-08-01T07:55:25;17.70;99.90
51567;DHT22;37657;53.182;5.638;2022-08-01T07:57:51;17.80;99.90
51567;DHT22;37657;53.182;5.638;2022-08-01T08:00:17;17.80;99.90
51567;DHT22;37657;53.182;5.638;2022-08-01T08:02:43;17.80;99.90
51567;DHT22;37657;53.182;5.638;2022-08-01T08:05:11;17.80;99.90
51567;DHT22;37657;53.182;5.638;2022-08-01T08:07:37;17.80;99.90
51567;DHT22;37657;53.182;5.638;2022-08-01T08:10:04;17.60;99.90
51567;DHT22;37657;53.182;5.638;2022-08-01T08:12:29;17.50;99.90
51567;DHT22;37657;53.182;5.638;2022-08-01T08:14:56;17.50;99.90
51567;DHT22;37657;53.182;5.638;2022-08-01T08:17:21;17.50;99.90
51567;DHT22;37657;53.182;5.638;2022-08-01T08:19:47;17.60;99.90
51567;DHT22;37657;53.182;5.638;2022-08-01T08:22:12;17.50;99.90
51567;DHT22;37657;53.182;5.638;2022-08-01T08:24:38;17.10;99.90
51567;DHT22;37657;53.182;5.638;2022-08-01T08:27:04;16.80;99.90
51567;DHT22;37657;53.182;5.638;2022-08-01T08:29:31;16.70;99.90
51567;DHT22;37657;53.182;5.638;2022-08-01T08:31:58;16.60;99.90
51567;DHT22;37657;53.182;5.638;2022-08-01T08:34:24;16.60;99.90
51567;DHT22;37657;53.182;5.638;2022-08-01T08:36:50;16.60;99.90
51567;DHT22;37657;53.182;5.638;2022-08-01T08:39:16;16.70;99.90
51567;DHT22;37657;53.182;5.638;2022-08-01T08:41:42;16.80;99.90
51567;DHT22;37657;53.182;5.638;2022-08-01T08:44:09;16.80;99.90
51567;DHT22;37657;53.182;5.638;2022-08-01T08:46:41;17.00;99.90
51567;DHT22;37657;53.182;5.638;2022-08-01T08:49:08;16.90;99.90
51567;DHT22;37657;53.182;5.638;2022-08-01T08:51:35;17.00;99.90
51567;DHT22;37657;53.182;5.638;2022-08-01T08:54:04;16.90;99.90
51567;DHT22;37657;53.182;5.638;2022-08-01T08:56:30;17.00;99.90
51567;DHT22;37657;53.182;5.638;2022-08-01T08:59:00;17.30;99.90
51567;DHT22;37657;53.182;5.638;2022-08-01T09:01:26;17.30;99.90
51567;DHT22;37657;53.182;5.638;2022-08-01T09:03:52;17.50;99.90
51567;DHT22;37657;53.182;5.638;2022-08-01T09:06:18;17.60;99.90
51567;DHT22;37657;53.182;5.638;2022-08-01T09:08:44;17.70;99.90
51567;DHT22;37657;53.182;5.638;2022-08-01T09:11:10;17.80;99.90
51567;DHT22;37657;53.182;5.638;2022-08-01T09:13:36;17.90;99.90
51567;DHT22;37657;53.182;5.638;2022-08-01T09:16:02;18.00;99.90
51567;DHT22;37657;53.182;5.638;2022-08-01T09:18:35;18.10;99.90
51567;DHT22;37657;53.182;5.638;2022-08-01T09:21:18;18.20;99.90
51567;DHT22;37657;53.182;5.638;2022-08-01T09:23:53;18.30;99.90
51567;DHT22;37657;53.182;5.638;2022-08-01T09:26:21;18.40;99.90
51567;DHT22;37657;53.182;5.638;2022-08-01T09:28:53;18.40;99.90
51567;DHT22;37657;53.182;5.638;2022-08-01T09:31:19;18.50;99.90
51567;DHT22;37657;53.182;5.638;2022-08-01T09:36:18;18.70;99.90
51567;DHT22;37657;53.182;5.638;2022-08-01T09:38:44;18.70;99.90
51567;DHT22;37657;53.182;5.638;2022-08-01T09:41:10;18.80;99.90
51567;DHT22;37657;53.182;5.638;2022-08-01T09:43:37;18.80;99.90
51567;DHT22;37657;53.182;5.638;2022-08-01T09:46:10;18.90;99.90
51567;DHT22;37657;53.182;5.638;2022-08-01T09:48:42;18.90;99.90
51567;DHT22;37657;53.182;5.638;2022-08-01T09:51:34;18.90;99.90
51567;DHT22;37657;53.182;5.638;2022-08-01T09:54:02;19.00;99.90
51567;DHT22;37657;53.182;5.638;2022-08-01T09:56:40;18.90;99.90
51567;DHT22;37657;53.182;5.638;2022-08-01T09:59:07;19.00;99.90
51567;DHT22;37657;53.182;5.638;2022-08-01T10:01:50;19.10;99.90
51567;DHT22;37657;53.182;5.638;2022-08-01T10:04:20;19.20;99.90
51567;DHT22;37657;53.182;5.638;2022-08-01T10:06:48;19.20;99.90
51567;DHT22;37657;53.182;5.638;2022-08-01T10:09:30;19.20;99.90
51567;DHT22;37657;53.182;5.638;2022-08-01T10:11:56;19.10;99.90
51567;DHT22;37657;53.182;5.638;2022-08-01T10:14:25;19.00;99.90
51567;DHT22;37657;53.182;5.638;2022-08-01T10:16:52;19.00;99.90
51567;DHT22;37657;53.182;5.638;2022-08-01T10:19:21;19.00;99.90
51567;DHT22;37657;53.182;5.638;2022-08-01T10:21:49;19.10;99.90
51567;DHT22;37657;53.182;5.638;2022-08-01T10:24:18;19.10;99.90
51567;DHT22;37657;53.182;5.638;2022-08-01T10:26:47;19.20;99.90
51567;DHT22;37657;53.182;5.638;2022-08-01T10:29:15;19.30;99.90
51567;DHT22;37657;53.182;5.638;2022-08-01T10:31:44;19.20;99.90
51567;DHT22;37657;53.182;5.638;2022-08-01T10:34:11;19.20;99.90
51567;DHT22;37657;53.182;5.638;2022-08-01T10:36:41;19.30;99.90
51567;DHT22;37657;53.182;5.638;2022-08-01T10:39:11;19.20;99.90
51567;DHT22;37657;53.182;5.638;2022-08-01T10:41:41;19.20;99.90
51567;DHT22;37657;53.182;5.638;2022-08-01T10:44:08;19.10;99.90
51567;DHT22;37657;53.182;5.638;2022-08-01T10:46:38;19.20;99.90
51567;DHT22;37657;53.182;5.638;2022-08-01T10:49:10;19.30;99.90
51567;DHT22;37657;53.182;5.638;2022-08-01T10:51:38;19.30;99.90
51567;DHT22;37657;53.182;5.638;2022-08-01T10:54:09;19.30;99.90
51567;DHT22;37657;53.182;5.638;2022-08-01T10:56:54;19.30;99.90
51567;DHT22;37657;53.182;5.638;2022-08-01T10:59:27;19.40;99.90
51567;DHT22;37657;53.182;5.638;2022-08-01T11:02:00;19.40;99.90
51567;DHT22;37657;53.182;5.638;2022-08-01T11:07:18;19.30;99.90
51567;DHT22;37657;53.182;5.638;2022-08-01T11:09:46;19.40;99.90
51567;DHT22;37657;53.182;5.638;2022-08-01T11:12:16;19.40;99.90
51567;DHT22;37657;53.182;5.638;2022-08-01T11:17:42;19.40;99.90
51567;DHT22;37657;53.182;5.638;2022-08-01T11:20:22;19.50;99.90
51567;DHT22;37657;53.182;5.638;2022-08-01T11:30:46;19.60;99.90
51567;DHT22;37657;53.182;5.638;2022-08-01T11:33:14;19.70;99.90
51567;DHT22;37657;53.182;5.638;2022-08-01T11:41:31;19.80;99.90
51567;DHT22;37657;53.182;5.638;2022-08-01T11:46:59;19.80;99.90
51567;DHT22;37657;53.182;5.638;2022-08-01T11:52:28;19.70;99.90
51567;DHT22;37657;53.182;5.638;2022-08-01T11:55:05;19.80;99.90
51567;DHT22;37657;53.182;5.638;2022-08-01T11:57:32;19.80;99.90
51567;DHT22;37657;53.182;5.638;2022-08-01T12:02:35;20.00;99.90
51567;DHT22;37657;53.182;5.638;2022-08-01T12:07:29;19.90;99.90
51567;DHT22;37657;53.182;5.638;2022-08-01T12:10:10;19.80;99.90
51567;DHT22;37657;53.182;5.638;2022-08-01T12:12:37;19.90;99.90
51567;DHT22;37657;53.182;5.638;2022-08-01T12:15:08;19.90;99.90
51567;DHT22;37657;53.182;5.638;2022-08-01T12:17:39;19.80;99.90
51567;DHT22;37657;53.182;5.638;2022-08-01T12:20:12;19.80;99.90
51567;DHT22;37657;53.182;5.638;2022-08-01T12:22:38;19.90;99.90
51567;DHT22;37657;53.182;5.638;2022-08-01T12:25:11;19.90;99.90
51567;DHT22;37657;53.182;5.638;2022-08-01T12:27:38;19.90;99.90
51567;DHT22;37657;53.182;5.638;2022-08-01T12:30:09;20.00;99.90
51567;DHT22;37657;53.182;5.638;2022-08-01T12:32:38;20.00;99.90
51567;DHT22;37657;53.182;5.638;2022-08-01T12:35:18;20.10;99.90
51567;DHT22;37657;53.182;5.638;2022-08-01T12:37:47;20.40;99.90
51567;DHT22;37657;53.182;5.638;2022-08-01T12:40:20;20.50;99.90
51567;DHT22;37657;53.182;5.638;2022-08-01T12:42:52;20.50;99.90
51567;DHT22;37657;53.182;5.638;2022-08-01T12:45:19;20.60;99.90
51567;DHT22;37657;53.182;5.638;2022-08-01T12:47:47;20.60;99.90
51567;DHT22;37657;53.182;5.638;2022-08-01T12:50:16;20.60;99.90
51567;DHT22;37657;53.182;5.638;2022-08-01T12:52:42;20.60;99.90
51567;DHT22;37657;53.182;5.638;2022-08-01T12:55:20;20.60;99.90
51567;DHT22;37657;53.182;5.638;2022-08-01T12:57:59;20.60;99.90
51567;DHT22;37657;53.182;5.638;2022-08-01T13:00:28;20.60;99.90
51567;DHT22;37657;53.182;5.638;2022-08-01T13:03:14;20.60;99.90
51567;DHT22;37657;53.182;5.638;2022-08-01T13:08:16;20.60;99.90
51567;DHT22;37657;53.182;5.638;2022-08-01T13:10:43;20.70;99.90
51567;DHT22;37657;53.182;5.638;2022-08-01T13:13:22;20.50;99.90
51567;DHT22;37657;53.182;5.638;2022-08-01T13:15:47;20.50;99.90
51567;DHT22;37657;53.182;5.638;2022-08-01T13:18:30;20.50;99.90
51567;DHT22;37657;53.182;5.638;2022-08-01T13:21:24;20.60;99.90
51567;DHT22;37657;53.182;5.638;2022-08-01T13:24:09;20.70;99.90
51567;DHT22;37657;53.182;5.638;2022-08-01T13:26:45;20.80;99.90
51567;DHT22;37657;53.182;5.638;2022-08-01T13:29:15;20.70;99.90
51567;DHT22;37657;53.182;5.638;2022-08-01T13:31:41;20.70;99.90
51567;DHT22;37657;53.182;5.638;2022-08-01T13:34:08;20.60;99.90
51567;DHT22;37657;53.182;5.638;2022-08-01T13:36:35;20.60;99.90
51567;DHT22;37657;53.182;5.638;2022-08-01T13:39:01;20.60;99.90
51567;DHT22;37657;53.182;5.638;2022-08-01T13:41:46;20.60;99.90
51567;DHT22;37657;53.182;5.638;2022-08-01T13:44:12;20.60;99.90
51567;DHT22;37657;53.182;5.638;2022-08-01T13:46:38;20.50;99.90
51567;DHT22;37657;53.182;5.638;2022-08-01T13:49:06;20.30;99.90
51567;DHT22;37657;53.182;5.638;2022-08-01T13:51:33;20.30;99.90
51567;DHT22;37657;53.182;5.638;2022-08-01T13:53:58;20.40;99.90
51567;DHT22;37657;53.182;5.638;2022-08-01T13:56:24;20.30;99.90
51567;DHT22;37657;53.182;5.638;2022-08-01T13:58:50;20.20;99.90
51567;DHT22;37657;53.182;5.638;2022-08-01T14:01:16;20.20;99.90
51567;DHT22;37657;53.182;5.638;2022-08-01T14:03:42;20.20;99.90
51567;DHT22;37657;53.182;5.638;2022-08-01T14:06:07;20.30;99.90
51567;DHT22;37657;53.182;5.638;2022-08-01T14:08:33;20.30;99.90
51567;DHT22;37657;53.182;5.638;2022-08-01T14:10:59;20.40;99.90
51567;DHT22;37657;53.182;5.638;2022-08-01T14:13:25;20.50;99.90
51567;DHT22;37657;53.182;5.638;2022-08-01T14:15:51;20.60;99.90
51567;DHT22;37657;53.182;5.638;2022-08-01T14:18:17;20.60;99.90
51567;DHT22;37657;53.182;5.638;2022-08-01T14:20:43;20.50;99.90
51567;DHT22;37657;53.182;5.638;2022-08-01T14:23:09;20.50;99.90
51567;DHT22;37657;53.182;5.638;2022-08-01T14:25:36;20.50;99.90
51567;DHT22;37657;53.182;5.638;2022-08-01T14:28:02;20.50;99.90
51567;DHT22;37657;53.182;5.638;2022-08-01T14:30:28;20.50;99.90
51567;DHT22;37657;53.182;5.638;2022-08-01T14:32:54;20.50;99.90
51567;DHT22;37657;53.182;5.638;2022-08-01T14:35:19;20.30;99.90
51567;DHT22;37657;53.182;5.638;2022-08-01T14:37:45;20.30;99.90
51567;DHT22;37657;53.182;5.638;2022-08-01T14:40:10;20.40;99.90
51567;DHT22;37657;53.182;5.638;2022-08-01T14:42:37;20.40;99.90
51567;DHT22;37657;53.182;5.638;2022-08-01T14:45:04;20.20;99.90
51567;DHT22;37657;53.182;5.638;2022-08-01T14:47:34;20.20;99.90
51567;DHT22;37657;53.182;5.638;2022-08-01T14:50:00;20.10;99.90
51567;DHT22;37657;53.182;5.638;2022-08-01T14:52:26;20.20;99.90
51567;DHT22;37657;53.182;5.638;2022-08-01T14:54:51;20.20;99.90
51567;DHT22;37657;53.182;5.638;2022-08-01T14:57:17;20.20;99.90
51567;DHT22;37657;53.182;5.638;2022-08-01T14:59:43;20.10;99.90
51567;DHT22;37657;53.182;5.638;2022-08-01T15:02:09;20.10;99.90
51567;DHT22;37657;53.182;5.638;2022-08-01T15:04:36;20.20;99.90
51567;DHT22;37657;53.182;5.638;2022-08-01T15:07:01;20.20;99.90
51567;DHT22;37657;53.182;5.638;2022-08-01T15:09:27;20.10;99.90
51567;DHT22;37657;53.182;5.638;2022-08-01T15:11:52;20.10;99.90
51567;DHT22;37657;53.182;5.638;2022-08-01T15:14:18;20.00;99.90
51567;DHT22;37657;53.182;5.638;2022-08-01T15:17:02;20.10;99.90
51567;DHT22;37657;53.182;5.638;2022-08-01T15:19:28;20.10;99.90
51567;DHT22;37657;53.182;5.638;2022-08-01T15:21:53;20.10;99.90
51567;DHT22;37657;53.182;5.638;2022-08-01T15:24:19;20.10;99.90
51567;DHT22;37657;53.182;5.638;2022-08-01T15:26:44;20.10;99.90
51567;DHT22;37657;53.182;5.638;2022-08-01T15:29:10;20.20;99.90
51567;DHT22;37657;53.182;5.638;2022-08-01T15:31:35;20.30;99.90
51567;DHT22;37657;53.182;5.638;2022-08-01T15:34:01;20.30;99.90
51567;DHT22;37657;53.182;5.638;2022-08-01T15:36:26;20.20;99.90
51567;DHT22;37657;53.182;5.638;2022-08-01T15:38:52;20.20;99.90
51567;DHT22;37657;53.182;5.638;2022-08-01T15:41:18;20.10;99.90
51567;DHT22;37657;53.182;5.638;2022-08-01T15:43:43;20.10;99.90
51567;DHT22;37657;53.182;5.638;2022-08-01T15:46:09;20.10;99.90
51567;DHT22;37657;53.182;5.638;2022-08-01T15:48:34;20.10;99.90
51567;DHT22;37657;53.182;5.638;2022-08-01T15:51:00;20.10;99.90
51567;DHT22;37657;53.182;5.638;2022-08-01T15:53:25;20.00;99.90
51567;DHT22;37657;53.182;5.638;2022-08-01T15:55:51;19.90;99.90
51567;DHT22;37657;53.182;5.638;2022-08-01T15:58:16;19.90;99.90
51567;DHT22;37657;53.182;5.638;2022-08-01T16:00:45;19.90;99.90
51567;DHT22;37657;53.182;5.638;2022-08-01T16:03:10;19.90;99.90
51567;DHT22;37657;53.182;5.638;2022-08-01T16:05:36;20.00;99.90
51567;DHT22;37657;53.182;5.638;2022-08-01T16:08:02;19.90;99.90
51567;DHT22;37657;53.182;5.638;2022-08-01T16:10:29;19.80;99.90
51567;DHT22;37657;53.182;5.638;2022-08-01T16:12:55;19.90;99.90
51567;DHT22;37657;53.182;5.638;2022-08-01T16:15:21;19.80;99.90
51567;DHT22;37657;53.182;5.638;2022-08-01T16:17:46;19.70;99.90
51567;DHT22;37657;53.182;5.638;2022-08-01T16:20:12;19.70;99.90
51567;DHT22;37657;53.182;5.638;2022-08-01T16:22:37;19.70;99.90